createdAt,value
2022-08-20T00:02:16.427Z,100106.50
2022-08-20T00:04:45.572Z,100107.47
2022-08-20T00:07:14.674Z,100107.53
2022-08-20T00:09:43.369Z,100107.56
2022-08-20T00:12:12.949Z,100108.47
2022-08-20T00:14:41.889Z,100102.34
2022-08-20T00:17:11.654Z,100103.25
2022-08-20T00:19:40.052Z,100099.72
2022-08-20T00:22:08.602Z,100091.75
2022-08-20T00:24:36.987Z,100093.50
2022-08-20T00:27:05.582Z,100105.09
2022-08-20T00:29:33.963Z,100100.69
2022-08-20T00:32:02.378Z,100105.19
2022-08-20T00:34:32.175Z,100103.38
2022-08-20T00:37:00.542Z,100102.53
2022-08-20T00:39:29.657Z,100104.31
2022-08-20T00:41:58.117Z,100105.25
2022-08-20T00:44:26.504Z,100107.19
2022-08-20T00:46:55.631Z,100106.38
2022-08-20T00:49:27.955Z,100108.25
2022-08-20T00:52:02.158Z,100103.88
2022-08-20T00:54:34.946Z,100107.50
2022-08-20T00:57:07.683Z,100104.03
2022-08-20T00:59:39.964Z,100099.66
2022-08-20T01:02:12.668Z,100100.53
2022-08-20T01:04:43.704Z,100101.44
2022-08-20T01:07:13.469Z,100097.06
2022-08-20T01:09:58.210Z,100094.44
2022-08-20T01:12:30.346Z,100087.41
2022-08-20T01:15:02.064Z,100093.66
2022-08-20T01:17:36.200Z,100091.88
2022-08-20T01:20:09.471Z,100091.94
2022-08-20T01:23:02.982Z,100097.28
2022-08-20T01:25:42.009Z,100098.19
2022-08-20T01:28:11.515Z,100103.50
2022-08-20T01:30:41.740Z,100105.25
2022-08-20T01:33:10.367Z,100102.59
2022-08-20T01:35:41.045Z,100099.97
2022-08-20T01:38:10.632Z,100107.06
2022-08-20T01:41:14.777Z,100111.50
2022-08-20T01:43:43.577Z,100107.13
2022-08-20T01:46:13.613Z,100105.38
2022-08-20T01:48:43.259Z,100111.56
2022-08-20T01:51:14.643Z,100110.69
2022-08-20T01:53:45.344Z,100105.38
2022-08-20T01:56:17.170Z,100113.34
2022-08-20T01:58:49.414Z,100123.13
2022-08-20T02:01:28.304Z,100115.16
2022-08-20T02:03:57.668Z,100116.06
2022-08-20T02:06:28.344Z,100118.75
2022-08-20T02:08:59.248Z,100120.56
2022-08-20T02:11:31.287Z,100118.81
2022-08-20T02:13:59.762Z,100120.59
2022-08-20T02:16:31.219Z,100121.47
2022-08-20T02:19:03.378Z,100125.91
2022-08-20T02:21:33.815Z,100123.25
2022-08-20T02:24:02.751Z,100125.91
2022-08-20T02:26:32.769Z,100122.34
2022-08-20T02:29:01.314Z,100125.00
2022-08-20T02:31:34.231Z,100128.56
2022-08-20T02:34:18.170Z,100124.13
2022-08-20T02:36:52.468Z,100117.94
2022-08-20T02:39:20.826Z,100116.16
2022-08-20T02:41:51.029Z,100116.16
2022-08-20T02:44:20.618Z,100117.94
2022-08-20T02:46:50.061Z,100115.28
2022-08-20T02:49:19.327Z,100116.16
2022-08-20T02:51:47.808Z,100109.09
2022-08-20T02:54:17.735Z,100110.88
2022-08-20T02:56:46.147Z,100109.09
2022-08-20T02:59:19.613Z,100112.66
2022-08-20T03:01:59.337Z,100113.59
2022-08-20T03:04:29.587Z,100114.47
2022-08-20T03:06:59.241Z,100112.75
2022-08-20T03:09:27.698Z,100118.13
2022-08-20T03:11:56.157Z,100121.66
2022-08-20T03:14:26.368Z,100118.13
2022-08-20T03:16:54.770Z,100119.03
2022-08-20T03:19:23.358Z,100111.06
2022-08-20T03:21:51.719Z,100111.06
2022-08-20T03:24:20.609Z,100115.53
2022-08-20T03:26:49.056Z,100120.84
2022-08-20T03:29:18.623Z,100122.63
2022-08-20T03:31:48.371Z,100125.31
2022-08-20T03:34:16.751Z,100119.13
2022-08-20T03:36:45.178Z,100117.38
2022-08-20T03:39:13.546Z,100114.72
2022-08-20T03:41:41.877Z,100110.28
2022-08-20T03:44:10.312Z,100099.63
2022-08-20T03:46:39.988Z,100094.31
2022-08-20T03:49:09.746Z,100097.84
2022-08-20T03:51:57.314Z,100095.19
2022-08-20T03:54:31.519Z,100096.09
2022-08-20T03:57:02.270Z,100095.19
2022-08-20T03:59:32.964Z,100089.84
2022-08-20T04:02:01.453Z,100082.78
2022-08-20T04:04:31.291Z,100085.44
2022-08-20T04:06:59.781Z,100083.72
2022-08-20T04:09:28.880Z,100100.56
2022-08-20T04:12:00.961Z,100102.34
2022-08-20T04:14:29.462Z,100111.25
2022-08-20T04:16:58.623Z,100114.81
2022-08-20T04:19:30.138Z,100106.84
2022-08-20T04:22:03.035Z,100114.84
2022-08-20T04:24:32.048Z,100113.09
2022-08-20T04:27:02.566Z,100118.41
2022-08-20T04:29:32.040Z,100130.84
2022-08-20T04:32:02.792Z,100134.41
2022-08-20T04:34:35.546Z,100133.56
2022-08-20T04:37:06.545Z,100137.09
2022-08-20T04:40:06.033Z,100138.88
2022-08-20T04:42:35.945Z,100139.78
2022-08-20T04:45:05.669Z,100142.44
2022-08-20T04:47:35.047Z,100150.44
2022-08-20T04:50:03.505Z,100147.78
2022-08-20T04:52:33.261Z,100153.97
2022-08-20T04:55:02.063Z,100154.88
2022-08-20T04:57:30.498Z,100159.25
2022-08-20T05:00:49.158Z,100156.63
2022-08-20T05:03:18.442Z,100148.66
2022-08-20T05:05:47.788Z,100150.47
2022-08-20T05:08:20.812Z,100154.91
2022-08-20T05:10:49.182Z,100162.03
2022-08-20T05:13:27.109Z,100156.72
2022-08-20T05:15:56.607Z,100163.84
2022-08-20T05:18:26.507Z,100167.44
2022-08-20T05:21:05.975Z,100161.25
2022-08-20T05:23:37.222Z,100157.72
2022-08-20T05:26:07.493Z,100159.50
2022-08-20T05:28:54.235Z,100158.59
2022-08-20T05:31:30.883Z,100160.38
2022-08-20T05:34:02.252Z,100154.19
2022-08-20T05:36:30.807Z,100160.44
2022-08-20T05:39:00.500Z,100157.81
2022-08-20T05:41:30.565Z,100163.13
2022-08-20T05:44:01.870Z,100159.59
2022-08-20T05:46:32.215Z,100167.56
2022-08-20T05:49:01.975Z,100164.91
2022-08-20T05:51:31.217Z,100168.50
2022-08-20T05:54:00.934Z,100169.41
2022-08-20T05:56:31.112Z,100164.09
2022-08-20T05:59:02.845Z,100186.28
2022-08-20T06:01:32.016Z,100181.00
2022-08-20T06:04:17.716Z,100181.91
2022-08-20T06:06:47.523Z,100189.91
2022-08-20T06:09:30.528Z,100186.38
2022-08-20T06:12:02.908Z,100184.59
2022-08-20T06:14:31.938Z,100184.59
2022-08-20T06:17:05.847Z,100180.19
2022-08-20T06:19:34.843Z,100187.25
2022-08-20T06:22:08.683Z,100182.84
2022-08-20T06:24:49.000Z,100186.41
2022-08-20T06:27:20.255Z,100186.41
2022-08-20T06:29:49.198Z,100188.16
2022-08-20T06:32:18.146Z,100181.09
2022-08-20T06:34:50.711Z,100187.28
2022-08-20T06:37:23.172Z,100186.41
2022-08-20T06:40:00.836Z,100186.41
2022-08-20T06:42:29.596Z,100193.47
2022-08-20T06:44:59.529Z,100191.72
2022-08-20T06:47:27.841Z,100188.16
2022-08-20T06:49:56.182Z,100190.81
2022-08-20T06:52:51.613Z,100194.34
2022-08-20T06:55:17.453Z,100189.91
2022-08-20T06:57:47.808Z,100201.41
2022-08-20T07:00:20.692Z,100196.97
2022-08-20T07:02:49.052Z,100200.53
2022-08-20T07:05:17.591Z,100198.75
2022-08-20T07:07:47.443Z,100199.63
2022-08-20T07:10:18.953Z,100204.06
2022-08-20T07:12:50.528Z,100206.75
2022-08-20T07:15:20.911Z,100210.28
2022-08-20T07:17:56.402Z,100217.41
2022-08-20T07:20:28.677Z,100226.28
2022-08-20T07:22:57.185Z,100212.13
2022-08-20T07:25:27.358Z,100219.22
2022-08-20T07:28:01.887Z,100219.22
2022-08-20T07:30:56.105Z,100220.09
2022-08-20T07:33:26.309Z,100221.84
2022-08-20T07:35:57.005Z,100222.72
2022-08-20T07:38:27.317Z,100220.94
2022-08-20T07:40:59.382Z,100229.78
2022-08-20T07:43:28.314Z,100228.88
2022-08-20T07:46:00.762Z,100235.97
2022-08-20T07:48:32.534Z,100239.44
2022-08-20T07:51:04.239Z,100235.88
2022-08-20T07:53:36.016Z,100237.66
2022-08-20T07:56:10.142Z,100238.56
2022-08-20T07:58:42.504Z,100242.97
2022-08-20T08:01:11.886Z,100245.63
2022-08-20T08:03:49.922Z,100249.16
2022-08-20T08:06:30.455Z,100243.84
2022-08-20T08:09:04.713Z,100238.53
2022-08-20T08:11:37.910Z,100240.28
2022-08-20T08:14:08.090Z,100251.78
2022-08-20T08:16:37.330Z,100248.25
2022-08-20T08:19:09.923Z,100249.16
2022-08-20T08:21:38.972Z,100251.88
2022-08-20T08:24:07.485Z,100255.41
2022-08-20T08:26:37.239Z,100244.81
2022-08-20T08:29:07.527Z,100254.56
2022-08-20T08:31:35.929Z,100266.06
2022-08-20T08:34:04.395Z,100275.81
2022-08-20T08:36:32.756Z,100262.53
2022-08-20T08:39:01.166Z,100266.97
2022-08-20T08:41:33.600Z,100268.72
2022-08-20T08:44:08.149Z,100259.00
2022-08-20T08:46:40.941Z,100266.09
2022-08-20T08:49:12.885Z,100265.22
2022-08-20T08:51:44.026Z,100272.31
2022-08-20T08:54:17.650Z,100276.75
2022-08-20T08:56:50.269Z,100276.78
2022-08-20T08:59:23.087Z,100279.47
2022-08-20T09:01:57.224Z,100287.44
2022-08-20T09:04:31.666Z,100291.88
2022-08-20T09:07:02.804Z,100288.31
2022-08-20T09:09:33.911Z,100286.53
2022-08-20T09:12:07.029Z,100294.47
2022-08-20T09:14:37.707Z,100290.91
2022-08-20T09:17:06.852Z,100303.28
2022-08-20T09:19:35.435Z,100299.72
2022-08-20T09:22:09.600Z,100302.34
2022-08-20T09:24:38.045Z,100308.53
2022-08-20T09:27:07.211Z,100300.53
2022-08-20T09:29:37.505Z,100309.41
2022-08-20T09:32:08.312Z,100304.97
2022-08-20T09:34:39.395Z,100306.75
2022-08-20T09:37:08.363Z,100308.50
2022-08-20T09:39:36.941Z,100310.25
2022-08-20T09:42:09.758Z,100312.03
2022-08-20T09:44:40.083Z,100313.75
2022-08-20T09:47:08.754Z,100313.72
2022-08-20T09:49:37.808Z,100308.38
2022-08-20T09:52:09.334Z,100315.44
2022-08-20T09:54:46.259Z,100325.16
2022-08-20T09:57:16.557Z,100312.75
2022-08-20T09:59:49.717Z,100311.88
2022-08-20T10:02:18.045Z,100319.84
2022-08-20T10:04:46.453Z,100314.50
2022-08-20T10:07:16.476Z,100323.34
2022-08-20T10:09:45.065Z,100325.09
2022-08-20T10:12:13.574Z,100326.88
2022-08-20T10:14:41.966Z,100324.16
2022-08-20T10:17:11.769Z,100329.47
2022-08-20T10:19:40.210Z,100328.59
2022-08-20T10:22:08.590Z,100326.81
2022-08-20T10:24:37.006Z,100329.53
2022-08-20T10:27:05.991Z,100337.47
2022-08-20T10:29:35.114Z,100330.41
2022-08-20T10:32:12.393Z,100333.00
2022-08-20T10:34:41.708Z,100330.34
2022-08-20T10:37:11.001Z,100333.88
2022-08-20T10:39:39.685Z,100333.00
2022-08-20T10:42:08.275Z,100336.56
2022-08-20T10:44:36.623Z,100340.09
2022-08-20T10:47:18.430Z,100343.63
2022-08-20T10:49:47.363Z,100339.16
2022-08-20T10:52:15.751Z,100334.72
2022-08-20T10:54:44.236Z,100334.69
2022-08-20T10:57:16.291Z,100339.06
2022-08-20T10:59:46.796Z,100336.38
2022-08-20T11:02:17.497Z,100331.00
2022-08-20T11:04:46.187Z,100335.41
2022-08-20T11:07:17.765Z,100338.06
2022-08-20T11:09:48.203Z,100340.69
2022-08-20T11:12:17.388Z,100341.53
2022-08-20T11:14:46.140Z,100334.41
2022-08-20T11:17:19.699Z,100339.69
2022-08-20T11:19:48.158Z,100344.94
2022-08-20T11:22:17.274Z,100339.59
2022-08-20T11:24:47.115Z,100339.53
2022-08-20T11:27:22.778Z,100343.06
2022-08-20T11:29:51.545Z,100341.28
2022-08-20T11:32:21.883Z,100335.84
2022-08-20T11:34:50.552Z,100336.66
2022-08-20T11:37:21.504Z,100344.53
2022-08-20T11:39:50.150Z,100334.69
2022-08-20T11:42:18.771Z,100338.97
2022-08-20T11:44:47.209Z,100345.00
2022-08-20T11:47:24.540Z,100334.16
2022-08-20T11:49:58.548Z,100342.88
2022-08-20T11:52:27.314Z,100338.25
2022-08-20T11:54:57.914Z,100328.31
2022-08-20T11:57:29.528Z,100327.28
2022-08-20T12:00:00.573Z,100335.00
2022-08-20T12:02:31.026Z,100334.78
2022-08-20T12:04:59.939Z,100338.97
2022-08-20T12:07:28.418Z,100337.84
2022-08-20T12:09:56.842Z,100330.63
2022-08-20T12:12:25.539Z,100334.91
2022-08-20T12:14:55.529Z,100330.25
2022-08-20T12:17:28.485Z,100329.22
2022-08-20T12:19:59.830Z,100334.38
2022-08-20T12:22:28.196Z,100331.44
2022-08-20T12:24:56.658Z,100332.25
2022-08-20T12:27:27.109Z,100319.66
2022-08-20T12:29:57.334Z,100324.03
2022-08-20T12:32:27.563Z,100324.91
2022-08-20T12:34:56.286Z,100319.53
2022-08-20T12:37:28.414Z,100324.69
2022-08-20T12:39:58.866Z,100316.44
2022-08-20T12:42:29.190Z,100322.31
2022-08-20T12:44:57.609Z,100320.22
2022-08-20T12:47:28.708Z,100329.94
2022-08-20T12:50:00.341Z,100312.94
2022-08-20T12:52:31.533Z,100311.72
2022-08-20T12:55:00.506Z,100305.84
2022-08-20T12:57:31.985Z,100303.63
2022-08-20T13:00:03.701Z,100305.81
2022-08-20T13:02:33.206Z,100301.19
2022-08-20T13:05:04.960Z,100298.22
2022-08-20T13:07:35.496Z,100297.94
2022-08-20T13:10:06.577Z,100306.03
2022-08-20T13:12:35.251Z,100298.81
2022-08-20T13:15:03.679Z,100295.91
2022-08-20T13:17:38.764Z,100304.59
2022-08-20T13:20:11.614Z,100296.34
2022-08-20T13:22:42.082Z,100289.84
2022-08-20T13:25:11.857Z,100293.00
2022-08-20T13:27:42.346Z,100283.81
2022-08-20T13:30:14.932Z,100287.22
2022-08-20T13:32:43.718Z,100286.25
2022-08-20T13:35:13.821Z,100282.44
2022-08-20T13:37:43.847Z,100276.78
2022-08-20T13:40:13.030Z,100276.53
2022-08-20T13:42:41.461Z,100278.00
2022-08-20T13:45:11.313Z,100284.44
2022-08-20T13:47:41.737Z,100286.34
2022-08-20T13:50:12.922Z,100281.00
2022-08-20T13:52:43.422Z,100276.38
2022-08-20T13:55:15.226Z,100271.63
2022-08-20T13:57:43.912Z,100291.00
2022-08-20T14:00:16.425Z,100288.44
2022-08-20T14:02:45.485Z,100285.88
2022-08-20T14:05:17.809Z,100280.50
2022-08-20T14:07:50.677Z,100279.31
2022-08-20T14:10:22.428Z,100273.34
2022-08-20T14:12:51.713Z,100277.25
2022-08-20T14:15:20.201Z,100270.47
2022-08-20T14:17:52.617Z,100269.81
2022-08-20T14:20:23.566Z,100270.22
2022-08-20T14:22:53.401Z,100278.66
2022-08-20T14:25:23.955Z,100268.78
2022-08-20T14:27:52.704Z,100271.16
2022-08-20T14:30:24.400Z,100266.31
2022-08-20T14:32:52.817Z,100269.47
2022-08-20T14:35:21.344Z,100264.25
2022-08-20T14:37:53.619Z,100258.09
2022-08-20T14:40:24.257Z,100255.63
2022-08-20T14:42:52.718Z,100264.38
2022-08-20T14:45:22.320Z,100260.63
2022-08-20T14:47:54.187Z,100259.00
2022-08-20T14:50:26.014Z,100252.53
2022-08-20T14:52:57.027Z,100257.09
2022-08-20T14:55:28.045Z,100264.88
2022-08-20T14:57:56.823Z,100259.22
2022-08-20T15:00:27.540Z,100269.88
2022-08-20T15:02:57.713Z,100256.00
2022-08-20T15:05:26.777Z,100263.94
2022-08-20T15:07:58.101Z,100268.91
2022-08-20T15:10:30.864Z,100263.56
2022-08-20T15:12:59.952Z,100265.50
2022-08-20T15:15:28.338Z,100264.19
2022-08-20T15:18:00.002Z,100259.66
2022-08-20T15:20:31.010Z,100264.31
2022-08-20T15:23:00.994Z,100263.56
2022-08-20T15:25:36.913Z,100265.34
2022-08-20T15:28:08.170Z,100258.44
2022-08-20T15:30:38.030Z,100269.53
2022-08-20T15:33:06.681Z,100261.84
2022-08-20T15:35:35.267Z,100266.59
2022-08-20T15:38:05.271Z,100261.00
2022-08-20T15:40:34.041Z,100262.34
2022-08-20T15:43:04.669Z,100258.78
2022-08-20T15:45:33.963Z,100265.19
2022-08-20T15:48:09.527Z,100264.78
2022-08-20T15:50:55.144Z,100260.06
2022-08-20T15:53:29.827Z,100258.63
2022-08-20T15:56:05.066Z,100260.03
2022-08-20T15:58:41.372Z,100262.06
2022-08-20T16:01:24.410Z,100259.72
2022-08-20T16:04:25.910Z,100256.53
2022-08-20T16:07:01.425Z,100256.06
2022-08-20T16:09:44.746Z,100262.19
2022-08-20T16:12:20.565Z,100253.00
2022-08-20T16:14:58.754Z,100256.19
2022-08-20T16:17:38.916Z,100252.81
2022-08-20T16:20:13.495Z,100249.25
2022-08-20T16:22:44.730Z,100248.94
2022-08-20T16:25:15.798Z,100252.22
2022-08-20T16:27:54.040Z,100250.88
2022-08-20T16:30:32.312Z,100247.84
2022-08-20T16:33:04.241Z,100248.72
2022-08-20T16:35:35.403Z,100258.63
2022-08-20T16:38:12.346Z,100254.69
2022-08-20T16:40:49.656Z,100252.41
2022-08-20T16:43:24.018Z,100269.06
2022-08-20T16:45:55.276Z,100255.75
2022-08-20T16:48:26.442Z,100256.38
2022-08-20T16:51:02.539Z,100244.56
2022-08-20T16:53:31.218Z,100245.56
2022-08-20T16:56:00.938Z,100251.22
2022-08-20T16:58:29.353Z,100243.97
2022-08-20T17:01:10.979Z,100255.00
2022-08-20T17:03:41.046Z,100253.91
2022-08-20T17:06:20.358Z,100243.91
2022-08-20T17:08:50.893Z,100247.53
2022-08-20T17:11:29.098Z,100251.50
2022-08-20T17:14:10.866Z,100249.56
2022-08-20T17:16:45.477Z,100252.59
2022-08-20T17:19:19.348Z,100259.41
2022-08-20T17:21:50.569Z,100260.94
2022-08-20T17:24:25.931Z,100259.81
2022-08-20T17:27:01.640Z,100256.75
2022-08-20T17:29:32.346Z,100268.03
2022-08-20T17:32:09.132Z,100269.66
2022-08-20T17:34:45.352Z,100270.38
2022-08-20T17:37:21.611Z,100265.66
2022-08-20T17:39:52.958Z,100276.69
2022-08-20T17:42:26.011Z,100274.25
2022-08-20T17:45:00.614Z,100271.81
2022-08-20T17:47:39.646Z,100273.03
2022-08-20T17:50:14.211Z,100281.34
2022-08-20T17:52:48.098Z,100280.59
2022-08-20T17:55:16.607Z,100293.31
2022-08-20T17:57:49.178Z,100278.41
2022-08-20T18:00:23.377Z,100284.84
2022-08-20T18:02:52.626Z,100289.50
2022-08-20T18:05:22.946Z,100285.19
2022-08-20T18:08:08.477Z,100283.63
2022-08-20T18:10:43.460Z,100289.19
2022-08-20T18:13:18.693Z,100287.59
2022-08-20T18:15:53.604Z,100286.88
2022-08-20T18:18:30.171Z,100296.94
2022-08-20T18:21:21.634Z,100310.53
2022-08-20T18:23:54.000Z,100303.63
2022-08-20T18:26:28.228Z,100300.22
2022-08-20T18:28:59.810Z,100303.06
2022-08-20T18:31:32.390Z,100305.06
2022-08-20T18:34:11.933Z,100306.16
2022-08-20T18:36:42.392Z,100303.69
2022-08-20T18:39:24.293Z,100305.69
2022-08-20T18:42:00.061Z,100303.19
2022-08-20T18:44:35.662Z,100309.63
2022-08-20T18:47:08.335Z,100312.50
2022-08-20T18:49:38.771Z,100317.22
2022-08-20T18:52:12.599Z,100318.28
2022-08-20T18:54:43.476Z,100322.09
2022-08-20T18:57:21.581Z,100315.19
2022-08-20T18:59:57.674Z,100310.06
2022-08-20T19:02:29.843Z,100321.84
2022-08-20T19:05:02.193Z,100312.25
2022-08-20T19:07:48.375Z,100318.66
2022-08-20T19:10:32.628Z,100311.66
2022-08-20T19:13:20.512Z,100313.59
2022-08-20T19:15:54.206Z,100325.38
2022-08-20T19:18:27.518Z,100322.00
2022-08-20T19:20:58.832Z,100316.81
2022-08-20T19:23:30.358Z,100309.88
2022-08-20T19:26:01.567Z,100318.03
2022-08-20T19:28:35.848Z,100313.66
2022-08-20T19:31:13.107Z,100312.91
2022-08-20T19:33:44.052Z,100315.66
2022-08-20T19:36:15.431Z,100318.41
2022-08-20T19:38:46.255Z,100314.88
2022-08-20T19:41:28.873Z,100325.63
2022-08-20T19:44:00.697Z,100323.00
2022-08-20T19:46:34.561Z,100329.31
2022-08-20T19:49:24.819Z,100332.06
2022-08-20T19:52:06.591Z,100331.25
2022-08-20T19:54:47.881Z,100333.16
2022-08-20T19:57:18.246Z,100340.38
2022-08-20T19:59:56.034Z,100338.69
2022-08-20T20:02:27.823Z,100342.28
2022-08-20T20:04:58.105Z,100339.72
2022-08-20T20:07:30.289Z,100349.56
2022-08-20T20:09:59.566Z,100350.50
2022-08-20T20:12:28.254Z,100347.91
2022-08-20T20:14:56.921Z,100343.56
2022-08-20T20:17:32.793Z,100348.06
2022-08-20T20:20:03.645Z,100344.56
2022-08-20T20:22:34.306Z,100341.13
2022-08-20T20:25:08.686Z,100351.81
2022-08-20T20:27:37.797Z,100348.38
2022-08-20T20:30:09.197Z,100344.91
2022-08-20T20:32:45.098Z,100353.81
2022-08-20T20:35:26.581Z,100352.16
2022-08-20T20:38:00.380Z,100348.63
2022-08-20T20:40:35.932Z,100348.72
2022-08-20T20:43:06.616Z,100351.44
2022-08-20T20:45:37.841Z,100349.72
2022-08-20T20:48:20.623Z,100346.19
2022-08-20T20:50:50.987Z,100336.50
2022-08-20T20:53:32.471Z,100340.13
2022-08-20T20:56:28.981Z,100349.06
2022-08-20T20:59:00.180Z,100346.41
2022-08-20T21:01:46.146Z,100347.34
2022-08-20T21:04:21.267Z,100340.28
2022-08-20T21:06:50.142Z,100335.91
2022-08-20T21:09:19.647Z,100341.31
2022-08-20T21:11:48.685Z,100338.72
2022-08-20T21:14:18.264Z,100328.13
2022-08-20T21:16:46.701Z,100333.47
2022-08-20T21:19:16.077Z,100331.75
2022-08-20T21:21:45.850Z,100339.75
2022-08-20T21:24:14.283Z,100338.00
2022-08-20T21:26:42.840Z,100343.38
2022-08-20T21:29:14.430Z,100337.22
2022-08-20T21:31:45.140Z,100336.38
2022-08-20T21:34:16.083Z,100346.16
2022-08-20T21:36:46.477Z,100345.31
2022-08-20T21:39:15.497Z,100343.50
2022-08-20T21:41:45.143Z,100343.56
2022-08-20T21:44:21.206Z,100339.16
2022-08-20T21:46:50.466Z,100340.94
2022-08-20T21:49:20.364Z,100349.81
2022-08-20T21:51:50.918Z,100355.19
2022-08-20T21:54:20.489Z,100351.63
2022-08-20T21:56:52.955Z,100360.53
2022-08-20T21:59:23.531Z,100357.00
2022-08-20T22:01:52.629Z,100350.81
2022-08-20T22:04:21.301Z,100349.97
2022-08-20T22:06:51.045Z,100348.19
2022-08-20T22:09:19.449Z,100353.50
2022-08-20T22:11:53.858Z,100356.16
2022-08-20T22:14:23.709Z,100349.94
2022-08-20T22:16:52.066Z,100355.25
2022-08-20T22:19:20.467Z,100351.72
2022-08-20T22:21:49.418Z,100340.22
2022-08-20T22:24:19.162Z,100344.63
2022-08-20T22:26:47.530Z,100344.66
2022-08-20T22:29:15.938Z,100341.13
2022-08-20T22:31:44.963Z,100349.97
2022-08-20T22:34:15.086Z,100352.63
2022-08-20T22:36:43.576Z,100357.03
2022-08-20T22:39:12.013Z,100359.69
2022-08-20T22:41:41.812Z,100353.50
2022-08-20T22:44:10.292Z,100361.47
2022-08-20T22:46:46.435Z,100356.19
2022-08-20T22:49:19.356Z,100357.09
2022-08-20T22:51:47.728Z,100354.47
2022-08-20T22:54:20.395Z,100355.34
2022-08-20T22:56:51.060Z,100341.22
2022-08-20T22:59:20.640Z,100354.50
2022-08-20T23:01:49.411Z,100351.84
2022-08-20T23:04:23.296Z,100347.44
2022-08-20T23:06:51.858Z,100351.84
2022-08-20T23:09:21.226Z,100350.06
2022-08-20T23:11:51.585Z,100349.22
2022-08-20T23:14:20.277Z,100347.44
2022-08-20T23:16:57.115Z,100338.59
2022-08-20T23:19:26.300Z,100343.03
2022-08-20T23:21:54.681Z,100340.38
2022-08-20T23:24:23.129Z,100342.16
2022-08-20T23:26:53.587Z,100348.34
2022-08-20T23:29:25.502Z,100337.72
2022-08-20T23:31:55.638Z,100339.50
2022-08-20T23:34:24.602Z,100344.81
2022-08-20T23:36:54.125Z,100335.97
2022-08-20T23:39:23.001Z,100336.88
2022-08-20T23:41:53.041Z,100336.00
2022-08-20T23:44:26.344Z,100335.13
2022-08-20T23:46:56.541Z,100328.06
2022-08-20T23:49:25.099Z,100332.47
2022-08-20T23:51:53.613Z,100328.94
2022-08-20T23:54:22.153Z,100326.28
2022-08-20T23:56:52.053Z,100326.28
2022-08-20T23:59:25.749Z,100316.56
